createdAt,value
2023-03-15T00:02:41.656Z,2.27
2023-03-15T00:05:47.319Z,4.23
2023-03-15T00:08:51.972Z,2.50
2023-03-15T00:11:55.161Z,1.97
2023-03-15T00:14:58.475Z,3.13
2023-03-15T00:18:03.140Z,2.30
2023-03-15T00:21:07.511Z,3.40
2023-03-15T00:24:11.452Z,2.47
2023-03-15T00:27:14.475Z,1.50
2023-03-15T00:30:18.184Z,2.40
2023-03-15T00:33:21.537Z,0.90
2023-03-15T00:36:26.019Z,2.77
2023-03-15T00:39:29.158Z,2.17
2023-03-15T00:42:32.122Z,2.23
2023-03-15T00:45:35.077Z,4.13
2023-03-15T00:48:38.288Z,0.97
2023-03-15T00:51:42.608Z,3.53
2023-03-15T00:54:45.728Z,2.67
2023-03-15T00:57:48.933Z,4.27
2023-03-15T01:00:52.512Z,5.57
2023-03-15T01:03:55.913Z,3.83
2023-03-15T01:07:00.518Z,3.93
2023-03-15T01:10:04.898Z,4.23
2023-03-15T01:13:07.906Z,2.17
2023-03-15T01:16:12.624Z,3.37
2023-03-15T01:19:15.746Z,3.43
2023-03-15T01:22:20.455Z,3.00
2023-03-15T01:25:23.393Z,3.03
2023-03-15T01:28:26.348Z,3.03
2023-03-15T01:31:31.211Z,4.90
2023-03-15T01:34:34.571Z,1.03
2023-03-15T01:37:38.919Z,1.97
2023-03-15T01:40:43.320Z,2.90
2023-03-15T01:43:47.995Z,3.97
2023-03-15T01:46:51.247Z,4.00
2023-03-15T01:49:59.193Z,3.40
2023-03-15T01:53:03.506Z,4.30
2023-03-15T01:56:08.188Z,4.50
2023-03-15T01:59:17.499Z,2.40
2023-03-15T02:02:22.621Z,3.50
2023-03-15T02:05:30.104Z,2.87
2023-03-15T02:08:37.821Z,2.80
2023-03-15T02:11:41.596Z,1.93
2023-03-15T02:14:45.235Z,3.27
2023-03-15T02:17:49.559Z,1.30
2023-03-15T02:21:00.872Z,3.90
2023-03-15T02:24:17.516Z,1.40
2023-03-15T02:27:28.118Z,4.10
2023-03-15T02:30:31.250Z,1.70
2023-03-15T02:33:37.504Z,3.40
2023-03-15T02:36:40.434Z,3.13
2023-03-15T02:39:43.363Z,1.63
2023-03-15T02:42:52.372Z,2.13
2023-03-15T02:45:56.022Z,2.50
2023-03-15T02:49:00.809Z,1.90
2023-03-15T02:52:04.025Z,3.40
2023-03-15T02:55:08.350Z,1.80
2023-03-15T02:58:12.676Z,2.23
2023-03-15T03:01:16.924Z,2.93
2023-03-15T03:04:20.673Z,1.73
2023-03-15T03:07:23.639Z,1.93
2023-03-15T03:10:26.626Z,2.63
2023-03-15T03:13:31.223Z,3.70
2023-03-15T03:16:34.326Z,2.60
2023-03-15T03:19:37.288Z,1.97
2023-03-15T03:22:41.462Z,3.13
2023-03-15T03:25:45.684Z,3.50
2023-03-15T03:28:49.979Z,2.40
2023-03-15T03:31:53.120Z,2.67
2023-03-15T03:34:56.047Z,4.73
2023-03-15T03:37:59.498Z,2.17
2023-03-15T03:41:02.410Z,2.30
2023-03-15T03:44:07.055Z,1.73
2023-03-15T03:47:10.333Z,1.83
2023-03-15T03:50:13.460Z,2.23
2023-03-15T03:53:16.393Z,1.47
2023-03-15T03:56:19.333Z,1.80
2023-03-15T03:59:23.604Z,1.20
2023-03-15T04:02:26.608Z,0.97
2023-03-15T04:05:29.814Z,1.73
2023-03-15T04:08:32.772Z,1.30
2023-03-15T04:11:36.197Z,1.40
2023-03-15T04:14:40.501Z,0.87
2023-03-15T04:17:43.426Z,1.57
2023-03-15T04:20:48.378Z,1.60
2023-03-15T04:23:51.300Z,0.60
2023-03-15T04:26:57.851Z,1.00
2023-03-15T04:30:05.268Z,1.60
2023-03-15T04:33:09.876Z,1.10
2023-03-15T04:36:18.336Z,1.30
2023-03-15T04:39:21.416Z,1.40
2023-03-15T04:42:26.125Z,1.77
2023-03-15T04:45:31.483Z,1.57
2023-03-15T04:48:34.575Z,2.30
2023-03-15T04:51:37.643Z,3.10
2023-03-15T04:54:40.767Z,2.93
2023-03-15T04:57:43.954Z,3.13
2023-03-15T05:00:48.325Z,3.27
2023-03-15T05:03:51.341Z,4.90
2023-03-15T05:06:54.279Z,3.30
2023-03-15T05:09:57.204Z,4.90
2023-03-15T05:13:00.196Z,6.97
2023-03-15T05:16:04.534Z,5.43
2023-03-15T05:19:07.553Z,7.00
2023-03-15T05:22:10.814Z,6.93
2023-03-15T05:25:15.306Z,7.43
2023-03-15T05:28:18.682Z,6.83
2023-03-15T05:31:22.999Z,9.93
2023-03-15T05:34:26.198Z,6.97
2023-03-15T05:37:29.563Z,6.10
2023-03-15T05:40:33.013Z,6.30
2023-03-15T05:43:36.048Z,6.20
2023-03-15T05:46:40.352Z,6.07
2023-03-15T05:49:43.809Z,8.13
2023-03-15T05:52:46.717Z,4.63
2023-03-15T05:55:49.637Z,7.13
2023-03-15T05:58:52.612Z,4.30
2023-03-15T06:01:56.994Z,5.47
2023-03-15T06:04:59.951Z,5.53
2023-03-15T06:08:02.917Z,5.57
2023-03-15T06:11:05.854Z,5.97
2023-03-15T06:14:08.803Z,7.50
2023-03-15T06:17:13.174Z,6.57
2023-03-15T06:20:16.139Z,7.77
2023-03-15T06:23:19.085Z,6.83
2023-03-15T06:26:22.980Z,10.57
2023-03-15T06:29:26.080Z,7.73
2023-03-15T06:32:30.406Z,7.60
2023-03-15T06:35:33.398Z,8.57
2023-03-15T06:38:36.433Z,11.63
2023-03-15T06:41:40.036Z,11.70
2023-03-15T06:44:43.748Z,7.17
2023-03-15T06:47:48.026Z,8.30
2023-03-15T06:50:50.951Z,7.93
2023-03-15T06:53:54.000Z,7.07
2023-03-15T06:56:57.076Z,5.33
2023-03-15T07:00:00.029Z,5.83
2023-03-15T07:03:04.542Z,6.50
2023-03-15T07:06:07.500Z,8.27
2023-03-15T07:09:10.622Z,5.70
2023-03-15T07:12:14.089Z,6.47
2023-03-15T07:15:17.633Z,7.77
2023-03-15T07:18:21.991Z,5.20
2023-03-15T07:21:24.948Z,7.07
2023-03-15T07:24:28.361Z,9.33
2023-03-15T07:27:31.290Z,6.07
2023-03-15T07:30:34.249Z,7.27
2023-03-15T07:33:39.408Z,6.03
2023-03-15T07:36:42.393Z,7.90
2023-03-15T07:39:46.651Z,5.17
2023-03-15T07:42:49.615Z,4.30
2023-03-15T07:45:52.588Z,3.23
2023-03-15T07:48:56.865Z,3.23
2023-03-15T07:51:59.836Z,4.73
2023-03-15T07:55:04.776Z,3.63
2023-03-15T07:58:10.846Z,3.20
2023-03-15T08:01:14.139Z,3.13
2023-03-15T08:04:18.652Z,2.83
2023-03-15T08:07:21.799Z,4.40
2023-03-15T08:10:24.892Z,3.37
2023-03-15T08:13:27.865Z,3.50
2023-03-15T08:16:30.807Z,5.07
2023-03-15T08:19:35.181Z,3.23
2023-03-15T08:22:38.553Z,4.27
2023-03-15T08:25:41.622Z,3.43
2023-03-15T08:28:44.615Z,2.00
2023-03-15T08:31:47.595Z,3.13
2023-03-15T08:34:53.058Z,3.33
2023-03-15T08:37:56.549Z,2.70
2023-03-15T08:41:00.519Z,2.50
2023-03-15T08:44:03.896Z,3.63
2023-03-15T08:47:06.895Z,2.93
2023-03-15T08:50:15.127Z,2.37
2023-03-15T08:53:18.069Z,1.87
2023-03-15T08:56:21.273Z,1.80
2023-03-15T08:59:32.390Z,2.10
2023-03-15T09:02:35.576Z,1.80
2023-03-15T09:05:40.252Z,2.30
2023-03-15T09:08:43.140Z,3.27
2023-03-15T09:11:46.072Z,2.17
2023-03-15T09:14:49.214Z,5.33
2023-03-15T09:17:52.827Z,2.40
2023-03-15T09:20:57.776Z,1.67
2023-03-15T09:24:00.894Z,0.93
2023-03-15T09:27:03.829Z,0.70
2023-03-15T09:30:07.977Z,1.03
2023-03-15T09:33:14.527Z,2.70
2023-03-15T09:36:19.116Z,1.37
2023-03-15T09:39:23.001Z,1.93
2023-03-15T09:42:32.277Z,4.00
2023-03-15T09:46:01.679Z,2.60
2023-03-15T09:49:10.532Z,2.43
2023-03-15T09:52:34.660Z,3.97
2023-03-15T09:55:37.699Z,2.37
2023-03-15T09:58:41.515Z,4.80
2023-03-15T10:01:45.266Z,3.47
2023-03-15T10:04:51.247Z,1.43
2023-03-15T10:07:55.549Z,5.40
2023-03-15T10:11:07.819Z,2.63
2023-03-15T10:14:23.794Z,5.00
2023-03-15T10:17:36.120Z,6.90
2023-03-15T10:20:43.684Z,1.17
2023-03-15T10:23:53.750Z,5.13
2023-03-15T10:27:00.744Z,3.00
2023-03-15T10:30:14.043Z,5.67
2023-03-15T10:33:23.337Z,2.03
2023-03-15T10:36:26.980Z,4.43
2023-03-15T10:39:31.782Z,4.17
2023-03-15T10:42:35.141Z,2.43
2023-03-15T10:45:39.577Z,4.23
2023-03-15T10:48:54.306Z,2.00
2023-03-15T10:51:59.617Z,2.93
2023-03-15T10:55:07.585Z,3.63
2023-03-15T10:58:21.122Z,1.17
2023-03-15T11:01:26.458Z,1.93
2023-03-15T11:04:34.209Z,0.77
2023-03-15T11:07:37.660Z,0.50
2023-03-15T11:10:42.834Z,1.43
2023-03-15T11:13:59.313Z,1.20
2023-03-15T11:17:03.630Z,1.90
2023-03-15T11:20:26.002Z,1.40
2023-03-15T11:23:32.693Z,2.30
2023-03-15T11:26:39.813Z,1.47
2023-03-15T11:29:48.704Z,3.70
2023-03-15T11:32:52.031Z,1.10
2023-03-15T11:35:59.228Z,1.90
2023-03-15T11:39:04.538Z,2.10
2023-03-15T11:42:21.055Z,2.27
2023-03-15T11:45:32.245Z,1.97
2023-03-15T11:48:40.918Z,2.53
2023-03-15T11:51:44.094Z,2.43
2023-03-15T11:54:47.952Z,4.37
2023-03-15T11:57:53.324Z,1.93
2023-03-15T12:00:57.225Z,3.80
2023-03-15T12:04:43.913Z,2.23
2023-03-15T12:08:18.500Z,3.57
2023-03-15T12:11:42.542Z,1.70
2023-03-15T12:14:46.903Z,1.47
2023-03-15T12:17:52.135Z,4.47
2023-03-15T12:21:08.485Z,1.57
2023-03-15T12:24:21.453Z,2.03
2023-03-15T12:27:24.433Z,2.10
2023-03-15T12:30:34.409Z,2.30
2023-03-15T12:33:47.457Z,2.07
2023-03-15T12:36:53.586Z,1.40
2023-03-15T12:40:02.800Z,4.70
2023-03-15T12:43:05.769Z,2.37
2023-03-15T12:46:48.352Z,5.17
2023-03-15T12:49:52.784Z,2.67
2023-03-15T12:53:02.199Z,4.03
2023-03-15T12:56:41.869Z,2.47
2023-03-15T12:59:51.050Z,1.90
2023-03-15T13:03:06.132Z,3.63
2023-03-15T13:06:20.136Z,2.40
2023-03-15T13:09:50.007Z,2.53
2023-03-15T13:13:00.564Z,2.60
2023-03-15T13:16:15.327Z,4.70
2023-03-15T13:19:22.900Z,2.60
2023-03-15T13:22:46.743Z,3.80
2023-03-15T13:26:02.671Z,3.00
2023-03-15T13:29:14.954Z,6.60
2023-03-15T13:32:22.883Z,4.37
2023-03-15T13:35:26.035Z,2.97
2023-03-15T13:38:32.346Z,5.07
2023-03-15T13:41:35.340Z,6.13
2023-03-15T13:44:38.367Z,4.00
2023-03-15T13:47:42.722Z,2.80
2023-03-15T13:50:50.196Z,3.80
2023-03-15T13:53:56.851Z,3.87
2023-03-15T13:57:04.967Z,3.93
2023-03-15T14:00:12.034Z,3.60
2023-03-15T14:03:22.309Z,5.50
2023-03-15T14:06:27.798Z,4.23
2023-03-15T14:09:32.126Z,4.57
2023-03-15T14:12:35.276Z,6.63
2023-03-15T14:15:44.145Z,5.87
2023-03-15T14:18:51.252Z,7.27
2023-03-15T14:21:56.436Z,4.87
2023-03-15T14:25:00.868Z,4.23
2023-03-15T14:28:05.286Z,4.27
2023-03-15T14:31:08.631Z,5.10
2023-03-15T14:34:23.674Z,3.60
2023-03-15T14:37:31.161Z,3.93
2023-03-15T14:40:38.441Z,5.53
2023-03-15T14:43:41.423Z,6.00
2023-03-15T14:46:44.438Z,6.83
2023-03-15T14:49:47.567Z,5.27
2023-03-15T14:52:51.974Z,5.87
2023-03-15T14:55:56.355Z,6.67
2023-03-15T14:58:59.907Z,4.07
2023-03-15T15:02:03.424Z,5.23
2023-03-15T15:05:19.149Z,4.17
2023-03-15T15:08:23.148Z,3.03
2023-03-15T15:11:27.519Z,4.90
2023-03-15T15:14:31.591Z,5.73
2023-03-15T15:17:34.599Z,3.93
2023-03-15T15:20:37.672Z,3.53
2023-03-15T15:23:56.951Z,6.00
2023-03-15T15:27:03.026Z,4.20
2023-03-15T15:30:07.372Z,3.43
2023-03-15T15:33:11.518Z,2.37
2023-03-15T15:36:17.302Z,5.43
2023-03-15T15:39:23.711Z,6.30
2023-03-15T15:42:28.078Z,6.47
2023-03-15T15:45:34.240Z,2.90
2023-03-15T15:48:37.188Z,6.17
2023-03-15T15:51:45.507Z,4.70
2023-03-15T15:54:48.550Z,5.67
2023-03-15T15:57:54.702Z,2.63
2023-03-15T16:00:57.748Z,3.33
2023-03-15T16:04:02.008Z,3.90
2023-03-15T16:07:05.317Z,6.23
2023-03-15T16:10:09.706Z,5.63
2023-03-15T16:13:14.077Z,7.53
2023-03-15T16:16:18.466Z,5.23
2023-03-15T16:19:21.476Z,5.03
2023-03-15T16:22:27.041Z,7.83
2023-03-15T16:25:34.297Z,3.70
2023-03-15T16:28:38.591Z,6.67
2023-03-15T16:31:41.939Z,5.97
2023-03-15T16:34:45.473Z,6.90
2023-03-15T16:37:48.877Z,4.90
2023-03-15T16:40:53.387Z,3.83
2023-03-15T16:43:57.690Z,4.93
2023-03-15T16:47:00.662Z,8.57
2023-03-15T16:50:03.814Z,8.70
2023-03-15T16:53:08.646Z,5.50
2023-03-15T16:56:14.356Z,7.67
2023-03-15T16:59:19.164Z,6.40
2023-03-15T17:02:24.540Z,6.67
2023-03-15T17:05:27.913Z,4.90
2023-03-15T17:08:31.439Z,3.00
2023-03-15T17:11:34.396Z,7.63
2023-03-15T17:14:38.804Z,6.27
2023-03-15T17:17:41.783Z,3.93
2023-03-15T17:20:45.993Z,6.10
2023-03-15T17:23:50.646Z,4.83
2023-03-15T17:26:53.735Z,7.03
2023-03-15T17:29:58.146Z,6.30
2023-03-15T17:33:01.600Z,4.33
2023-03-15T17:36:07.026Z,7.10
2023-03-15T17:39:16.770Z,7.30
2023-03-15T17:42:20.047Z,2.60
2023-03-15T17:45:25.528Z,13.33
2023-03-15T17:48:28.505Z,6.97
2023-03-15T17:51:34.252Z,4.67
2023-03-15T17:54:37.264Z,10.07
2023-03-15T17:57:42.960Z,7.57
2023-03-15T18:00:52.527Z,8.37
2023-03-15T18:03:57.026Z,4.87
2023-03-15T18:07:00.048Z,2.77
2023-03-15T18:10:03.008Z,8.60
2023-03-15T18:13:06.418Z,7.23
2023-03-15T18:16:12.284Z,4.73
2023-03-15T18:19:15.293Z,4.40
2023-03-15T18:22:18.446Z,3.23
2023-03-15T18:25:24.237Z,6.80
2023-03-15T18:28:27.163Z,7.23
2023-03-15T18:31:31.692Z,4.80
2023-03-15T18:34:34.797Z,4.27
2023-03-15T18:37:37.803Z,3.43
2023-03-15T18:40:40.744Z,5.00
2023-03-15T18:43:49.416Z,7.53
2023-03-15T18:46:53.853Z,2.80
2023-03-15T18:50:07.977Z,8.57
2023-03-15T18:53:12.881Z,5.93
2023-03-15T18:56:19.239Z,6.27
2023-03-15T18:59:24.170Z,4.60
2023-03-15T19:02:30.249Z,6.30
2023-03-15T19:05:38.573Z,4.77
2023-03-15T19:08:42.571Z,8.00
2023-03-15T19:11:45.563Z,8.13
2023-03-15T19:14:48.695Z,9.30
2023-03-15T19:17:54.396Z,4.47
2023-03-15T19:20:57.356Z,3.67
2023-03-15T19:24:00.411Z,9.43
2023-03-15T19:27:03.467Z,10.20
2023-03-15T19:30:09.118Z,5.83
2023-03-15T19:33:13.495Z,9.37
2023-03-15T19:36:17.003Z,9.57
2023-03-15T19:39:20.154Z,4.83
2023-03-15T19:42:23.083Z,7.53
2023-03-15T19:45:26.027Z,6.03
2023-03-15T19:48:30.342Z,4.70
2023-03-15T19:51:33.273Z,8.70
2023-03-15T19:54:36.355Z,6.63
2023-03-15T19:57:39.825Z,6.30
2023-03-15T20:00:42.836Z,4.37
2023-03-15T20:03:47.511Z,9.00
2023-03-15T20:06:50.530Z,3.93
2023-03-15T20:09:53.794Z,6.73
2023-03-15T20:12:59.008Z,7.47
2023-03-15T20:16:02.249Z,7.50
2023-03-15T20:19:06.583Z,9.77
2023-03-15T20:22:09.546Z,6.47
2023-03-15T20:25:13.471Z,10.50
2023-03-15T20:28:16.771Z,7.03
2023-03-15T20:31:21.670Z,5.10
2023-03-15T20:34:25.998Z,8.17
2023-03-15T20:37:31.305Z,9.60
2023-03-15T20:40:34.970Z,5.40
2023-03-15T20:43:37.946Z,6.60
2023-03-15T20:46:40.966Z,6.77
2023-03-15T20:49:45.666Z,6.80
2023-03-15T20:52:48.973Z,8.07
2023-03-15T20:55:52.251Z,3.17
2023-03-15T20:58:55.560Z,6.60
2023-03-15T21:01:58.541Z,5.70
2023-03-15T21:05:02.880Z,6.70
2023-03-15T21:08:05.961Z,7.33
2023-03-15T21:11:09.380Z,4.90
2023-03-15T21:14:12.555Z,3.80
2023-03-15T21:17:15.525Z,8.03
2023-03-15T21:20:20.329Z,6.90
2023-03-15T21:23:23.273Z,4.67
2023-03-15T21:26:26.278Z,6.60
2023-03-15T21:29:29.232Z,10.20
2023-03-15T21:32:34.727Z,5.10
2023-03-15T21:35:39.046Z,7.87
2023-03-15T21:38:42.078Z,8.97
2023-03-15T21:41:45.035Z,5.40
2023-03-15T21:44:47.996Z,8.50
2023-03-15T21:47:52.613Z,5.40
2023-03-15T21:50:56.941Z,7.93
2023-03-15T21:54:00.160Z,5.17
2023-03-15T21:57:04.184Z,7.57
2023-03-15T22:00:11.843Z,4.83
2023-03-15T22:03:17.669Z,4.63
2023-03-15T22:06:22.574Z,5.77
2023-03-15T22:09:25.576Z,6.50
2023-03-15T22:12:28.543Z,6.33
2023-03-15T22:15:33.789Z,3.97
2023-03-15T22:18:36.820Z,5.87
2023-03-15T22:21:42.177Z,7.50
2023-03-15T22:24:45.224Z,4.60
2023-03-15T22:27:48.247Z,6.90
2023-03-15T22:30:52.320Z,12.40
2023-03-15T22:33:55.330Z,9.37
2023-03-15T22:36:59.625Z,5.00
2023-03-15T22:40:02.572Z,4.97
2023-03-15T22:43:06.149Z,6.83
2023-03-15T22:46:09.188Z,4.67
2023-03-15T22:49:12.238Z,5.80
2023-03-15T22:52:16.545Z,5.33
2023-03-15T22:55:20.663Z,6.83
2023-03-15T22:58:23.625Z,5.63
2023-03-15T23:01:26.674Z,6.27
2023-03-15T23:04:30.655Z,8.43
2023-03-15T23:07:35.082Z,2.80
2023-03-15T23:10:38.137Z,5.13
2023-03-15T23:13:42.110Z,4.53
2023-03-15T23:16:45.158Z,6.53
2023-03-15T23:19:48.189Z,6.60
2023-03-15T23:22:52.890Z,8.07
2023-03-15T23:25:55.844Z,6.00
2023-03-15T23:28:58.775Z,6.27
2023-03-15T23:32:02.034Z,8.37
2023-03-15T23:35:06.160Z,4.83
2023-03-15T23:38:10.479Z,4.63
2023-03-15T23:41:13.652Z,6.47
2023-03-15T23:44:17.026Z,8.23
2023-03-15T23:47:20.430Z,7.20
2023-03-15T23:50:25.708Z,5.30
2023-03-15T23:53:30.848Z,4.93
2023-03-15T23:56:33.796Z,4.90
2023-03-15T23:59:38.000Z,3.93
